createdAt,value
2019-03-15T00:01:42.553Z,2.85
2019-03-15T00:04:11.256Z,2.80
2019-03-15T00:06:41.617Z,3.20
2019-03-15T00:09:09.715Z,2.62
2019-03-15T00:11:38.146Z,1.65
2019-03-15T00:14:06.526Z,2.83
2019-03-15T00:16:34.919Z,2.47
2019-03-15T00:19:03.457Z,2.92
2019-03-15T00:21:31.844Z,3.45
2019-03-15T00:24:00.286Z,2.83
2019-03-15T00:26:29.409Z,2.08
2019-03-15T00:28:57.845Z,2.87
2019-03-15T00:31:26.144Z,2.20
2019-03-15T00:33:57.717Z,4.87
2019-03-15T00:36:26.096Z,2.62
2019-03-15T00:38:54.776Z,4.05
2019-03-15T00:41:24.902Z,1.90
2019-03-15T00:43:54.076Z,2.77
2019-03-15T00:46:22.484Z,2.92
2019-03-15T00:48:50.993Z,2.62
2019-03-15T00:51:19.375Z,4.67
2019-03-15T00:53:47.774Z,2.10
2019-03-15T00:56:18.127Z,2.30
2019-03-15T00:58:47.095Z,2.25
2019-03-15T01:01:16.327Z,3.83
2019-03-15T01:03:44.807Z,2.70
2019-03-15T01:06:13.154Z,4.20
2019-03-15T01:08:41.552Z,2.83
2019-03-15T01:11:10.035Z,3.37
2019-03-15T01:13:38.391Z,2.90
2019-03-15T01:16:06.773Z,2.58
2019-03-15T01:18:35.509Z,3.20
2019-03-15T01:21:05.940Z,2.20
2019-03-15T01:23:34.111Z,3.65
2019-03-15T01:26:02.613Z,4.40
2019-03-15T01:28:31.342Z,3.02
2019-03-15T01:30:59.734Z,2.52
2019-03-15T01:33:28.374Z,2.67
2019-03-15T01:35:56.723Z,2.87
2019-03-15T01:38:25.156Z,2.87
2019-03-15T01:40:53.558Z,4.40
2019-03-15T01:43:21.959Z,3.42
2019-03-15T01:45:50.348Z,3.77
2019-03-15T01:48:19.068Z,4.12
2019-03-15T01:50:47.485Z,3.87
2019-03-15T01:53:15.850Z,5.90
2019-03-15T01:55:44.362Z,3.80
2019-03-15T01:58:12.711Z,3.37
2019-03-15T02:00:41.038Z,3.55
2019-03-15T02:03:09.540Z,5.03
2019-03-15T02:05:38.052Z,2.22
2019-03-15T02:08:06.687Z,3.80
2019-03-15T02:10:35.153Z,2.92
2019-03-15T02:13:04.283Z,5.03
2019-03-15T02:15:32.707Z,3.77
2019-03-15T02:18:01.075Z,3.47
2019-03-15T02:20:29.561Z,4.12
2019-03-15T02:22:58.347Z,4.47
2019-03-15T02:25:27.486Z,4.42
2019-03-15T02:27:56.132Z,5.95
2019-03-15T02:30:24.779Z,3.67
2019-03-15T02:32:53.314Z,5.78
2019-03-15T02:35:21.723Z,4.33
2019-03-15T02:37:50.187Z,3.80
2019-03-15T02:40:18.688Z,4.72
2019-03-15T02:42:47.187Z,3.83
2019-03-15T02:45:15.753Z,3.40
2019-03-15T02:47:44.259Z,3.35
2019-03-15T02:50:12.711Z,4.42
2019-03-15T02:52:42.327Z,3.98
2019-03-15T02:55:11.061Z,4.80
2019-03-15T02:57:39.464Z,3.77
2019-03-15T03:00:09.219Z,3.05
2019-03-15T03:02:37.571Z,4.00
2019-03-15T03:05:08.532Z,2.15
2019-03-15T03:07:37.017Z,2.25
2019-03-15T03:10:07.336Z,3.83
2019-03-15T03:15:06.616Z,2.53
2019-03-15T03:17:35.160Z,3.12
2019-03-15T03:20:05.795Z,3.30
2019-03-15T03:22:34.250Z,3.47
2019-03-15T03:25:02.921Z,3.12
2019-03-15T03:27:34.916Z,2.98
2019-03-15T03:30:03.476Z,2.52
2019-03-15T03:32:31.915Z,2.20
2019-03-15T03:35:00.710Z,3.40
2019-03-15T03:37:29.373Z,3.85
2019-03-15T03:39:57.846Z,2.33
2019-03-15T03:42:26.265Z,2.95
2019-03-15T03:44:54.716Z,2.92
2019-03-15T03:47:23.168Z,2.47
2019-03-15T03:49:51.610Z,3.00
2019-03-15T03:52:20.161Z,3.05
2019-03-15T03:54:48.620Z,2.92
2019-03-15T03:57:17.089Z,3.52
2019-03-15T03:59:45.573Z,2.50
2019-03-15T04:02:13.913Z,3.40
2019-03-15T04:04:42.561Z,3.12
2019-03-15T04:07:10.893Z,3.37
2019-03-15T04:09:39.476Z,4.58
2019-03-15T04:12:07.879Z,3.72
2019-03-15T04:14:36.269Z,2.27
2019-03-15T04:17:07.235Z,4.45
2019-03-15T04:19:35.686Z,3.83
2019-03-15T04:22:04.160Z,2.42
2019-03-15T04:24:32.699Z,4.30
2019-03-15T04:27:01.121Z,2.80
2019-03-15T04:29:29.535Z,3.70
2019-03-15T04:31:58.082Z,4.15
2019-03-15T04:34:28.385Z,2.98
2019-03-15T04:36:57.232Z,2.72
2019-03-15T04:39:25.626Z,3.27
2019-03-15T04:41:54.086Z,3.30
2019-03-15T04:44:22.409Z,3.83
2019-03-15T04:46:53.541Z,4.50
2019-03-15T04:49:21.974Z,3.12
2019-03-15T04:51:50.316Z,3.22
2019-03-15T04:54:18.894Z,2.42
2019-03-15T04:56:47.756Z,2.27
2019-03-15T04:59:18.059Z,3.55
2019-03-15T05:04:15.448Z,2.33
2019-03-15T05:06:45.436Z,2.50
2019-03-15T05:09:13.978Z,3.70
2019-03-15T05:11:43.078Z,2.47
2019-03-15T05:14:11.629Z,2.87
2019-03-15T05:16:40.132Z,3.67
2019-03-15T05:19:08.663Z,2.27
2019-03-15T05:21:37.278Z,3.62
2019-03-15T05:24:05.677Z,3.37
2019-03-15T05:26:34.292Z,2.70
2019-03-15T05:29:02.927Z,2.10
2019-03-15T05:31:34.134Z,3.62
2019-03-15T05:34:02.808Z,3.15
2019-03-15T05:36:31.222Z,2.83
2019-03-15T05:38:59.815Z,3.95
2019-03-15T05:41:28.652Z,4.75
2019-03-15T05:43:57.311Z,3.60
2019-03-15T05:46:25.867Z,4.83
2019-03-15T05:48:54.381Z,3.67
2019-03-15T05:51:22.969Z,3.55
2019-03-15T05:53:51.349Z,2.90
2019-03-15T05:56:19.795Z,2.42
2019-03-15T05:58:48.392Z,3.35
2019-03-15T06:01:16.896Z,3.30
2019-03-15T06:03:48.965Z,3.27
2019-03-15T06:06:15.543Z,2.22
2019-03-15T06:08:44.215Z,2.90
2019-03-15T06:11:12.689Z,4.85
2019-03-15T06:13:41.229Z,3.33
2019-03-15T06:16:09.731Z,4.15
2019-03-15T06:18:38.166Z,3.70
2019-03-15T06:21:06.627Z,4.28
2019-03-15T06:23:35.277Z,4.90
2019-03-15T06:26:03.724Z,4.45
2019-03-15T06:28:32.168Z,3.02
2019-03-15T06:31:00.666Z,4.05
2019-03-15T06:33:29.163Z,2.12
2019-03-15T06:35:57.680Z,3.37
2019-03-15T06:38:26.232Z,4.87
2019-03-15T06:40:54.710Z,4.50
2019-03-15T06:43:23.167Z,3.67
2019-03-15T06:45:51.721Z,3.75
2019-03-15T06:48:20.256Z,3.92
2019-03-15T06:50:48.784Z,3.45
2019-03-15T06:53:17.155Z,4.55
2019-03-15T06:55:45.717Z,2.50
2019-03-15T06:58:14.139Z,3.02
2019-03-15T07:00:45.369Z,3.80
2019-03-15T07:03:13.750Z,4.08
2019-03-15T07:05:42.281Z,4.05
2019-03-15T07:08:10.660Z,3.85
2019-03-15T07:10:39.594Z,4.20
2019-03-15T07:13:08.159Z,3.30
2019-03-15T07:15:36.818Z,4.00
2019-03-15T07:18:05.307Z,3.02
2019-03-15T07:20:33.888Z,4.70
2019-03-15T07:23:02.351Z,2.87
2019-03-15T07:25:30.908Z,2.58
2019-03-15T07:27:59.316Z,4.25
2019-03-15T07:30:27.714Z,4.75
2019-03-15T07:32:56.599Z,3.42
2019-03-15T07:35:25.142Z,3.35
2019-03-15T07:37:53.578Z,3.47
2019-03-15T07:40:23.694Z,2.72
2019-03-15T07:42:52.254Z,4.10
2019-03-15T07:45:21.081Z,4.03
2019-03-15T07:47:49.530Z,3.75
2019-03-15T07:50:18.125Z,5.20
2019-03-15T07:52:46.536Z,3.20
2019-03-15T07:55:14.984Z,2.85
2019-03-15T07:57:43.408Z,4.28
2019-03-15T08:00:15.846Z,3.17
2019-03-15T08:02:44.227Z,4.12
2019-03-15T08:05:12.675Z,4.20
2019-03-15T08:07:45.611Z,3.50
2019-03-15T08:10:13.323Z,3.17
2019-03-15T08:12:41.868Z,2.37
2019-03-15T08:15:11.527Z,4.37
2019-03-15T08:17:40.010Z,3.45
2019-03-15T08:20:12.658Z,3.27
2019-03-15T08:22:41.107Z,3.45
2019-03-15T08:25:10.907Z,2.67
2019-03-15T08:27:39.338Z,3.62
2019-03-15T08:30:14.384Z,3.77
2019-03-15T08:32:43.950Z,4.67
2019-03-15T08:35:13.351Z,2.83
2019-03-15T08:37:41.819Z,2.33
2019-03-15T08:40:11.465Z,2.65
2019-03-15T08:42:40.038Z,3.67
2019-03-15T08:45:14.402Z,3.87
2019-03-15T08:47:42.884Z,4.78
2019-03-15T08:50:15.487Z,4.28
2019-03-15T08:52:44.147Z,2.50
2019-03-15T08:55:13.666Z,3.95
2019-03-15T08:57:42.170Z,4.05
2019-03-15T09:00:13.964Z,3.65
2019-03-15T09:02:42.157Z,3.72
2019-03-15T09:05:11.752Z,4.37
2019-03-15T09:07:40.133Z,3.10
2019-03-15T09:10:22.011Z,2.83
2019-03-15T09:12:41.827Z,4.20
2019-03-15T09:15:11.240Z,4.65
2019-03-15T09:17:39.669Z,5.00
2019-03-15T09:20:09.879Z,3.17
2019-03-15T09:25:19.271Z,4.62
2019-03-15T09:27:39.556Z,4.65
2019-03-15T09:30:23.305Z,6.15
2019-03-15T09:32:44.342Z,4.40
2019-03-15T09:35:12.741Z,7.00
2019-03-15T09:37:41.138Z,5.72
2019-03-15T09:40:14.512Z,4.90
2019-03-15T09:42:43.060Z,6.25
2019-03-15T09:45:14.770Z,6.20
2019-03-15T09:47:43.252Z,4.78
2019-03-15T09:50:26.661Z,4.90
2019-03-15T09:52:46.473Z,6.40
2019-03-15T09:55:15.073Z,6.85
2019-03-15T09:57:43.604Z,7.47
2019-03-15T10:00:16.904Z,5.47
2019-03-15T10:02:45.529Z,4.90
2019-03-15T10:05:13.981Z,5.60
2019-03-15T10:07:43.651Z,5.53
2019-03-15T10:10:18.966Z,5.30
2019-03-15T10:12:47.349Z,8.98
2019-03-15T10:15:16.481Z,4.55
2019-03-15T10:17:44.874Z,7.78
2019-03-15T10:20:13.795Z,4.55
2019-03-15T10:22:42.193Z,5.22
2019-03-15T10:25:15.531Z,4.25
2019-03-15T10:27:44.037Z,4.05
2019-03-15T10:30:21.886Z,4.33
2019-03-15T10:32:50.343Z,2.98
2019-03-15T10:35:18.762Z,5.05
2019-03-15T10:37:47.150Z,4.47
2019-03-15T10:40:20.247Z,3.50
2019-03-15T10:42:48.676Z,3.95
2019-03-15T10:45:17.162Z,4.12
2019-03-15T10:47:45.631Z,3.30
2019-03-15T10:50:20.384Z,3.45
2019-03-15T10:52:48.894Z,4.90
2019-03-15T10:55:20.490Z,3.62
2019-03-15T10:57:47.386Z,3.87
2019-03-15T11:00:18.665Z,3.47
2019-03-15T11:02:47.030Z,4.00
2019-03-15T11:05:15.473Z,5.40
2019-03-15T11:07:43.965Z,4.67
2019-03-15T11:10:13.029Z,3.17
2019-03-15T11:12:41.609Z,4.00
2019-03-15T11:15:14.276Z,3.90
2019-03-15T11:17:42.742Z,5.35
2019-03-15T11:20:11.973Z,2.98
2019-03-15T11:22:40.390Z,4.30
2019-03-15T11:25:10.068Z,3.37
2019-03-15T11:27:38.574Z,4.00
2019-03-15T11:30:12.540Z,4.33
2019-03-15T11:32:41.319Z,3.50
2019-03-15T11:35:10.408Z,5.47
2019-03-15T11:37:38.900Z,2.70
2019-03-15T11:40:14.651Z,4.45
2019-03-15T11:42:43.168Z,4.42
2019-03-15T11:45:12.579Z,4.83
2019-03-15T11:48:01.267Z,4.87
2019-03-15T11:50:17.710Z,5.45
2019-03-15T11:52:46.221Z,4.55
2019-03-15T11:55:14.673Z,5.47
2019-03-15T11:57:43.097Z,5.22
2019-03-15T12:00:16.401Z,3.72
2019-03-15T12:02:44.865Z,5.33
2019-03-15T12:05:13.235Z,5.35
2019-03-15T12:07:41.786Z,3.72
2019-03-15T12:10:12.718Z,4.35
2019-03-15T12:12:41.122Z,5.22
2019-03-15T12:15:14.849Z,3.75
2019-03-15T12:17:43.265Z,5.03
2019-03-15T12:20:12.740Z,4.35
2019-03-15T12:22:41.287Z,5.65
2019-03-15T12:25:10.441Z,6.62
2019-03-15T12:27:38.893Z,3.65
2019-03-15T12:30:10.248Z,5.72
2019-03-15T12:32:38.792Z,5.12
2019-03-15T12:35:09.992Z,6.67
2019-03-15T12:37:38.493Z,6.25
2019-03-15T12:40:09.461Z,7.30
2019-03-15T12:42:39.555Z,7.22
2019-03-15T12:45:09.915Z,4.10
2019-03-15T12:50:08.353Z,4.60
2019-03-15T12:52:46.383Z,4.33
2019-03-15T12:55:12.074Z,4.42
2019-03-15T12:57:40.508Z,5.08
2019-03-15T13:00:16.443Z,4.05
2019-03-15T13:02:44.987Z,5.10
2019-03-15T13:05:13.422Z,4.05
2019-03-15T13:07:41.845Z,6.30
2019-03-15T13:10:16.282Z,6.83
2019-03-15T13:12:44.701Z,4.62
2019-03-15T13:15:16.745Z,3.75
2019-03-15T13:17:45.250Z,3.87
2019-03-15T13:20:17.343Z,5.30
2019-03-15T13:22:45.833Z,4.72
2019-03-15T13:25:14.203Z,4.62
2019-03-15T13:27:42.551Z,4.85
2019-03-15T13:30:12.677Z,4.55
2019-03-15T13:32:41.076Z,7.00
2019-03-15T13:35:09.597Z,3.98
2019-03-15T13:37:42.485Z,4.33
2019-03-15T13:40:17.595Z,4.00
2019-03-15T13:42:45.997Z,4.53
2019-03-15T13:45:15.133Z,3.52
2019-03-15T13:47:43.510Z,3.83
2019-03-15T13:50:17.235Z,2.83
2019-03-15T13:52:45.702Z,3.22
2019-03-15T13:55:14.143Z,2.90
2019-03-15T13:57:42.586Z,4.45
2019-03-15T14:00:16.787Z,3.10
2019-03-15T14:02:45.405Z,4.60
2019-03-15T14:05:13.873Z,4.85
2019-03-15T14:07:42.258Z,3.80
2019-03-15T14:10:14.403Z,3.62
2019-03-15T14:12:42.782Z,4.45
2019-03-15T14:15:13.325Z,5.78
2019-03-15T14:17:41.806Z,3.90
2019-03-15T14:20:11.592Z,4.10
2019-03-15T14:22:40.117Z,4.22
2019-03-15T14:25:16.412Z,6.62
2019-03-15T14:27:44.925Z,3.92
2019-03-15T14:30:13.929Z,4.15
2019-03-15T14:32:42.396Z,4.95
2019-03-15T14:35:10.792Z,4.62
2019-03-15T14:37:39.350Z,5.58
2019-03-15T14:40:11.764Z,6.25
2019-03-15T14:42:40.512Z,5.47
2019-03-15T14:45:10.990Z,6.00
2019-03-15T14:47:39.414Z,7.33
2019-03-15T14:50:09.586Z,6.50
2019-03-15T14:52:37.952Z,7.08
2019-03-15T14:55:08.569Z,7.62
2019-03-15T14:57:50.519Z,5.60
2019-03-15T15:00:12.063Z,9.70
2019-03-15T15:02:40.601Z,10.40
2019-03-15T15:05:11.008Z,9.75
2019-03-15T15:07:39.434Z,8.58
2019-03-15T15:10:12.804Z,6.75
2019-03-15T15:12:41.366Z,5.33
2019-03-15T15:15:20.450Z,5.53
2019-03-15T15:17:48.981Z,6.20
2019-03-15T15:20:17.290Z,11.50
2019-03-15T15:22:45.907Z,10.55
2019-03-15T15:25:16.409Z,9.65
2019-03-15T15:27:44.823Z,8.25
2019-03-15T15:30:14.700Z,9.78
2019-03-15T15:32:43.101Z,7.87
2019-03-15T15:35:12.129Z,8.15
2019-03-15T15:37:40.528Z,7.35
2019-03-15T15:40:18.148Z,11.65
2019-03-15T15:42:46.755Z,5.78
2019-03-15T15:45:15.148Z,5.85
2019-03-15T15:47:43.604Z,7.33
2019-03-15T15:50:14.401Z,6.08
2019-03-15T15:52:42.904Z,7.08
2019-03-15T15:55:13.800Z,7.08
2019-03-15T15:57:42.333Z,6.60
2019-03-15T16:00:15.546Z,5.75
2019-03-15T16:02:43.951Z,3.72
2019-03-15T16:05:12.442Z,3.50
2019-03-15T16:07:41.015Z,4.92
2019-03-15T16:10:13.764Z,4.17
2019-03-15T16:12:42.262Z,2.98
2019-03-15T16:15:13.088Z,4.10
2019-03-15T16:17:41.531Z,3.83
2019-03-15T16:20:10.601Z,3.55
2019-03-15T16:22:39.087Z,3.58
2019-03-15T16:25:08.883Z,3.75
2019-03-15T16:27:37.537Z,3.85
2019-03-15T16:30:09.451Z,3.45
2019-03-15T16:32:37.966Z,4.72
2019-03-15T16:35:08.879Z,5.78
2019-03-15T16:37:37.467Z,4.90
2019-03-15T16:40:08.535Z,5.53
2019-03-15T16:42:37.291Z,4.03
2019-03-15T16:45:11.404Z,4.25
2019-03-15T16:47:39.880Z,2.70
2019-03-15T16:50:12.514Z,3.92
2019-03-15T16:52:41.050Z,3.62
2019-03-15T16:55:12.205Z,5.17
2019-03-15T16:57:40.658Z,4.03
2019-03-15T17:00:15.963Z,2.40
2019-03-15T17:02:44.378Z,3.10
2019-03-15T17:05:13.493Z,2.37
2019-03-15T17:07:42.327Z,3.55
2019-03-15T17:10:16.230Z,4.92
2019-03-15T17:12:44.815Z,3.08
2019-03-15T17:15:17.861Z,2.47
2019-03-15T17:17:46.365Z,3.02
2019-03-15T17:20:14.874Z,2.37
2019-03-15T17:22:43.294Z,3.25
2019-03-15T17:25:12.238Z,4.00
2019-03-15T17:27:40.817Z,4.25
2019-03-15T17:30:15.833Z,3.15
2019-03-15T17:32:44.383Z,3.98
2019-03-15T17:35:19.881Z,3.75
2019-03-15T17:37:48.410Z,2.25
2019-03-15T17:40:17.768Z,3.33
2019-03-15T17:42:46.185Z,2.87
2019-03-15T17:45:14.625Z,3.47
2019-03-15T17:47:42.932Z,1.92
2019-03-15T17:50:16.297Z,3.50
2019-03-15T17:52:44.742Z,1.85
2019-03-15T17:55:14.258Z,1.42
2019-03-15T17:57:45.388Z,1.57
2019-03-15T18:02:41.774Z,1.42
2019-03-15T18:05:10.325Z,1.50
2019-03-15T18:07:38.885Z,2.05
2019-03-15T18:10:07.949Z,1.37
2019-03-15T18:12:36.393Z,1.22
2019-03-15T18:15:06.935Z,1.45
2019-03-15T18:17:35.318Z,0.72
2019-03-15T18:20:06.727Z,1.00
2019-03-15T18:22:35.199Z,0.93
2019-03-15T18:25:04.893Z,1.22
2019-03-15T18:27:33.241Z,1.15
2019-03-15T18:30:01.585Z,1.27
2019-03-15T18:32:29.976Z,2.02
2019-03-15T18:34:58.373Z,2.83
2019-03-15T18:37:26.752Z,0.80
2019-03-15T18:39:55.404Z,2.05
2019-03-15T18:42:23.885Z,1.50
2019-03-15T18:44:52.370Z,1.32
2019-03-15T18:47:20.814Z,1.77
2019-03-15T18:49:49.174Z,1.90
2019-03-15T18:52:17.618Z,0.98
2019-03-15T18:54:46.174Z,1.85
2019-03-15T18:57:14.751Z,1.85
2019-03-15T18:59:43.262Z,1.15
2019-03-15T19:02:11.716Z,1.12
2019-03-15T19:04:40.121Z,0.98
2019-03-15T19:07:08.539Z,1.50
2019-03-15T19:09:40.387Z,1.07
2019-03-15T19:12:08.774Z,0.72
2019-03-15T19:14:38.237Z,1.20
2019-03-15T19:17:06.540Z,0.90
2019-03-15T19:19:34.973Z,1.15
2019-03-15T19:22:04.511Z,1.10
2019-03-15T19:24:32.893Z,1.27
2019-03-15T19:27:01.196Z,0.95
2019-03-15T19:29:29.586Z,1.12
2019-03-15T19:32:06.871Z,1.02
2019-03-15T19:34:35.485Z,0.88
2019-03-15T19:37:15.663Z,0.85
2019-03-15T19:39:41.368Z,1.25
2019-03-15T19:42:09.750Z,1.05
2019-03-15T19:44:38.129Z,1.85
2019-03-15T19:47:06.526Z,1.47
2019-03-15T19:49:34.929Z,1.15
2019-03-15T19:52:03.281Z,0.88
2019-03-15T19:54:32.030Z,0.90
2019-03-15T19:57:00.465Z,0.88
2019-03-15T19:59:28.831Z,1.80
2019-03-15T20:01:57.272Z,1.70
2019-03-15T20:04:25.697Z,1.07
2019-03-15T20:06:54.094Z,1.27
2019-03-15T20:09:22.500Z,1.40
2019-03-15T20:11:51.293Z,0.85
2019-03-15T20:14:19.978Z,2.05
2019-03-15T20:16:48.307Z,1.42
2019-03-15T20:19:16.720Z,1.90
2019-03-15T20:21:45.089Z,1.10
2019-03-15T20:24:13.620Z,2.90
2019-03-15T20:26:41.989Z,1.65
2019-03-15T20:29:10.395Z,1.70
2019-03-15T20:31:38.810Z,0.98
2019-03-15T20:34:07.238Z,2.15
2019-03-15T20:36:35.737Z,0.80
2019-03-15T20:39:05.907Z,1.40
2019-03-15T20:41:34.317Z,1.80
2019-03-15T20:44:02.766Z,1.65
2019-03-15T20:46:35.950Z,1.20
2019-03-15T20:49:01.312Z,1.67
2019-03-15T20:51:29.695Z,1.37
2019-03-15T20:53:58.059Z,1.57
2019-03-15T20:56:26.464Z,2.75
2019-03-15T20:58:54.885Z,1.67
2019-03-15T21:01:23.284Z,1.52
2019-03-15T21:03:56.230Z,2.00
2019-03-15T21:06:21.816Z,1.90
2019-03-15T21:08:50.241Z,3.00
2019-03-15T21:11:18.800Z,1.30
2019-03-15T21:13:47.088Z,2.55
2019-03-15T21:16:18.126Z,1.55
2019-03-15T21:18:45.500Z,1.57
2019-03-15T21:21:14.028Z,3.30
2019-03-15T21:23:42.408Z,1.65
2019-03-15T21:26:10.863Z,2.17
2019-03-15T21:28:39.285Z,1.98
2019-03-15T21:31:07.772Z,2.72
2019-03-15T21:33:36.177Z,1.82
2019-03-15T21:36:04.593Z,2.45
2019-03-15T21:38:33.005Z,1.77
2019-03-15T21:41:01.518Z,2.58
2019-03-15T21:43:29.966Z,1.30
2019-03-15T21:45:58.593Z,3.42
2019-03-15T21:48:27.075Z,3.17
2019-03-15T21:50:55.627Z,2.98
2019-03-15T21:53:24.166Z,2.67
2019-03-15T21:55:52.590Z,1.50
2019-03-15T21:58:22.448Z,1.35
2019-03-15T22:01:01.610Z,1.80
2019-03-15T22:03:21.310Z,2.47
2019-03-15T22:05:54.350Z,3.85
2019-03-15T22:08:22.754Z,2.58
2019-03-15T22:10:51.157Z,1.27
2019-03-15T22:13:19.585Z,3.25
2019-03-15T22:15:48.049Z,1.57
2019-03-15T22:18:16.417Z,1.80
2019-03-15T22:20:44.794Z,3.35
2019-03-15T22:23:13.637Z,2.22
2019-03-15T22:25:42.077Z,2.15
2019-03-15T22:28:10.496Z,1.82
2019-03-15T22:30:38.932Z,1.92
2019-03-15T22:33:07.390Z,1.47
2019-03-15T22:35:35.956Z,2.45
2019-03-15T22:38:04.373Z,1.92
2019-03-15T22:40:32.920Z,1.75
2019-03-15T22:43:01.339Z,1.45
2019-03-15T22:45:29.843Z,1.62
2019-03-15T22:47:58.275Z,1.30
2019-03-15T22:50:26.812Z,3.02
2019-03-15T22:52:55.320Z,1.95
2019-03-15T22:55:23.865Z,2.12
2019-03-15T22:57:59.702Z,1.42
2019-03-15T23:00:26.668Z,2.05
2019-03-15T23:02:55.302Z,2.22
2019-03-15T23:05:23.712Z,3.75
2019-03-15T23:07:52.232Z,1.90
2019-03-15T23:10:20.663Z,3.37
2019-03-15T23:12:49.346Z,2.98
2019-03-15T23:15:17.906Z,3.40
2019-03-15T23:17:46.363Z,2.33
2019-03-15T23:20:14.864Z,3.33
2019-03-15T23:22:43.230Z,1.62
2019-03-15T23:25:11.668Z,2.37
2019-03-15T23:27:40.049Z,2.25
2019-03-15T23:30:11.229Z,3.25
2019-03-15T23:32:39.739Z,2.67
2019-03-15T23:35:08.139Z,1.80
2019-03-15T23:37:36.594Z,4.78
2019-03-15T23:40:10.333Z,2.27
2019-03-15T23:42:40.628Z,2.05
2019-03-15T23:47:37.362Z,2.42
2019-03-15T23:50:15.181Z,4.25
2019-03-15T23:52:43.712Z,2.47
2019-03-15T23:55:12.397Z,4.03
2019-03-15T23:57:40.774Z,2.98
